Terminal Aerodrome Forecast
Issued by NWS

Home | Current Version | Previous Version | Text Only | Print | Product List | Glossary On
Versions: 1 2 3 4 5 6 7 8 9 10 11 12 13 14 15 16 17 18 19
000
FTUS46 KLOX 291739
TAFOXR
TAF
KOXR 291739Z 2918/3018 29003KT P6SM OVC013
     FM292200 25008KT P6SM SCT025
      TEMPO 2922/3001 BKN025
     FM300100 VRB03KT P6SM OVC017
     FM300500 VRB03KT P6SM OVC009
      TEMPO 3007/3011 4SM BR OVC005
     FM301200 VRB03KT 6SM HZ OVC012=

USA.gov is the U.S. government's official web portal to all federal, state and local government web resources and services.